Time;durP1;ratioP1;P1;durP2;ratioP2;P2;SDS_P1;SDS_P2;PMS_P1;PMS_P2;Temp;Humidity;BMP_temperature;BMP_pressure;BME280_temperature;BME280_humidity;BME280_pressure;Samples;Min_cycle;Max_cycle;Signal;HPM_P1;HPM_P2
2023/05/07 00:00:03;;;;;;;1999.90;999.90;;;11.60;87.40;;;;;;5076218;28;20032;-74
2023/05/07 00:02:29;;;;;;;1999.90;999.90;;;11.50;87.60;;;;;;5050004;28;20036;-74
2023/05/07 00:04:55;;;;;;;1999.90;999.90;;;11.50;87.90;;;;;;5071787;28;20388;-74
2023/05/07 00:07:21;;;;;;;1999.90;999.90;;;11.50;87.30;;;;;;5065211;28;20053;-75
2023/05/07 00:09:46;;;;;;;1999.90;999.90;;;11.40;87.70;;;;;;5057659;28;20102;-74
2023/05/07 00:12:12;;;;;;;1999.90;999.90;;;11.50;87.50;;;;;;5058393;28;20124;-74
2023/05/07 00:14:38;;;;;;;1999.90;999.90;;;11.50;87.70;;;;;;5071620;28;20031;-74
2023/05/07 00:17:03;;;;;;;1999.90;999.90;;;11.40;87.60;;;;;;5056378;28;20499;-74
2023/05/07 00:19:29;;;;;;;1999.90;999.90;;;11.30;88.40;;;;;;5063970;28;20043;-74
2023/05/07 00:21:55;;;;;;;1999.90;999.90;;;11.40;88.60;;;;;;5073680;28;20128;-74
2023/05/07 00:24:21;;;;;;;1999.90;999.90;;;11.40;88.40;;;;;;5070152;28;20436;-74
2023/05/07 00:26:47;;;;;;;1999.90;999.90;;;11.40;87.80;;;;;;5066456;28;20036;-74
2023/05/07 00:29:12;;;;;;;1999.90;999.90;;;11.40;87.70;;;;;;5075502;28;20029;-74
2023/05/07 00:31:38;;;;;;;1999.90;999.90;;;11.30;88.50;;;;;;5070441;28;20119;-74
2023/05/07 00:34:04;;;;;;;1999.90;999.90;;;11.30;88.40;;;;;;5057186;28;20712;-73
2023/05/07 00:36:30;;;;;;;1999.90;999.90;;;11.30;88.80;;;;;;5056983;28;20406;-74
2023/05/07 00:38:58;;;;;;;1999.90;999.90;;;11.20;89.20;;;;;;5061311;28;20037;-74
2023/05/07 00:41:24;;;;;;;1999.90;999.90;;;11.20;89.40;;;;;;5051591;28;20052;-74
2023/05/07 00:43:51;;;;;;;1999.90;999.90;;;11.20;89.50;;;;;;5062223;28;20036;-74
2023/05/07 00:46:17;;;;;;;1999.90;999.90;;;11.30;89.20;;;;;;5070671;28;20051;-74
2023/05/07 00:48:43;;;;;;;1999.90;999.90;;;11.00;89.70;;;;;;5074848;28;20051;-74
2023/05/07 00:51:11;;;;;;;1999.90;999.90;;;11.00;89.80;;;;;;5058224;28;20048;-74
2023/05/07 00:53:37;;;;;;;1999.90;999.90;;;10.90;89.70;;;;;;5071057;28;20025;-73
2023/05/07 00:56:03;;;;;;;1999.90;999.90;;;11.10;89.70;;;;;;5076789;28;20028;-73
2023/05/07 00:58:30;;;;;;;1999.90;999.90;;;11.10;89.40;;;;;;5072393;28;20440;-74
2023/05/07 01:00:56;;;;;;;1999.90;999.90;;;11.10;89.90;;;;;;5072193;28;20032;-74
2023/05/07 01:03:21;;;;;;;1999.90;999.90;;;11.10;89.80;;;;;;5062103;28;20032;-74
2023/05/07 01:05:48;;;;;;;1999.90;999.90;;;11.10;89.20;;;;;;5026090;28;20042;-74
2023/05/07 01:08:14;;;;;;;1999.90;999.90;;;11.10;89.50;;;;;;5073035;28;20028;-74
2023/05/07 01:10:42;;;;;;;1999.90;999.90;;;11.00;89.80;;;;;;5073951;28;20635;-74
2023/05/07 01:13:12;;;;;;;1999.90;999.90;;;11.10;89.90;;;;;;5061286;28;20766;-74
2023/05/07 01:15:38;;;;;;;1999.90;999.90;;;11.00;90.20;;;;;;5067995;28;20127;-74
2023/05/07 01:18:04;;;;;;;1999.90;999.90;;;11.00;90.60;;;;;;5074657;28;20550;-75
2023/05/07 01:20:30;;;;;;;1999.90;999.90;;;11.10;90.50;;;;;;5059593;28;20040;-74
2023/05/07 01:22:57;;;;;;;1999.90;999.90;;;11.10;90.70;;;;;;5073237;28;20537;-74
2023/05/07 01:25:23;;;;;;;1999.90;999.90;;;11.00;90.50;;;;;;5069284;28;20052;-74
2023/05/07 01:27:49;;;;;;;1999.90;999.90;;;11.10;90.60;;;;;;5064913;28;20043;-74
2023/05/07 01:30:16;;;;;;;1999.90;999.90;;;11.10;90.60;;;;;;5075147;28;20024;-74
2023/05/07 01:32:50;;;;;;;1999.90;999.90;;;11.10;90.60;;;;;;5053613;28;20028;-74
2023/05/07 01:35:22;;;;;;;1999.90;999.90;;;11.00;90.40;;;;;;5070126;28;20050;-74
2023/05/07 01:37:49;;;;;;;1999.90;999.90;;;11.00;90.60;;;;;;5070291;28;20044;-74
2023/05/07 01:40:16;;;;;;;1999.90;999.90;;;11.10;90.90;;;;;;5070049;28;20032;-74
2023/05/07 01:42:43;;;;;;;1999.90;999.90;;;11.10;91.00;;;;;;5071278;28;20036;-74
2023/05/07 01:45:09;;;;;;;1999.90;999.90;;;11.10;91.20;;;;;;5070065;28;20111;-74
2023/05/07 01:47:36;;;;;;;1999.90;999.90;;;11.10;91.20;;;;;;5032111;28;20139;-74
2023/05/07 01:50:02;;;;;;;1999.90;999.90;;;11.20;91.10;;;;;;5052747;28;20039;-73
2023/05/07 01:52:29;;;;;;;1999.90;999.90;;;11.10;91.00;;;;;;5071449;28;20056;-74
2023/05/07 01:54:54;;;;;;;1999.90;999.90;;;11.10;91.00;;;;;;5073799;28;20083;-74
2023/05/07 01:57:20;;;;;;;1999.90;999.90;;;11.00;90.90;;;;;;5074564;28;20486;-74
2023/05/07 01:59:46;;;;;;;1999.90;999.90;;;10.90;91.00;;;;;;5059028;28;20111;-74
2023/05/07 02:02:11;;;;;;;1999.90;999.90;;;10.90;90.80;;;;;;5075664;28;20043;-74
2023/05/07 02:04:37;;;;;;;1999.90;999.90;;;10.90;90.90;;;;;;5071538;28;20482;-74
2023/05/07 02:07:03;;;;;;;1999.90;999.90;;;11.00;91.00;;;;;;5073665;28;20080;-73
2023/05/07 02:09:28;;;;;;;1999.90;999.90;;;10.90;90.90;;;;;;5075067;28;20036;-74
2023/05/07 02:11:54;;;;;;;1999.90;999.90;;;10.90;91.10;;;;;;5073398;28;20033;-74
2023/05/07 02:14:20;;;;;;;1999.90;999.90;;;10.70;91.10;;;;;;5077196;28;20493;-74
2023/05/07 02:16:46;;;;;;;1999.90;999.90;;;10.70;91.30;;;;;;5058969;28;20055;-74
2023/05/07 02:19:11;;;;;;;1999.90;999.90;;;10.80;91.40;;;;;;5057636;28;20119;-75
2023/05/07 02:21:37;;;;;;;1999.90;999.90;;;10.70;91.60;;;;;;5058267;28;20032;-74
2023/05/07 02:24:03;;;;;;;1999.90;999.90;;;10.70;91.60;;;;;;5059610;28;20035;-74
2023/05/07 02:26:28;;;;;;;1999.90;999.90;;;10.70;91.60;;;;;;5076045;28;20049;-74
2023/05/07 02:28:54;;;;;;;1999.90;999.90;;;10.70;91.80;;;;;;5071470;28;20021;-74
2023/05/07 02:31:19;;;;;;;1999.90;999.90;;;10.70;91.70;;;;;;5075927;28;20127;-74
2023/05/07 02:33:45;;;;;;;1999.90;999.90;;;10.70;91.80;;;;;;5074994;28;20063;-74
2023/05/07 02:36:12;;;;;;;1999.90;999.90;;;10.60;91.90;;;;;;5056722;28;20036;-74
2023/05/07 02:38:38;;;;;;;1999.90;999.90;;;10.60;91.90;;;;;;5071954;28;20126;-73
2023/05/07 02:41:04;;;;;;;1999.90;999.90;;;10.60;91.90;;;;;;5069495;28;20489;-74
2023/05/07 02:43:30;;;;;;;1999.90;999.90;;;10.30;91.60;;;;;;5073871;28;20098;-74
2023/05/07 02:46:07;;;;;;;1999.90;999.90;;;10.40;92.00;;;;;;5057000;28;20071;-74
2023/05/07 02:48:35;;;;;;;1999.90;999.90;;;10.30;91.70;;;;;;5072776;28;20410;-74
2023/05/07 02:51:01;;;;;;;1999.90;999.90;;;10.20;91.70;;;;;;5070641;28;20546;-74
2023/05/07 02:53:27;;;;;;;1999.90;999.90;;;10.20;91.70;;;;;;5060846;28;20029;-74
2023/05/07 02:55:57;;;;;;;1999.90;999.90;;;10.10;91.70;;;;;;5065481;28;20040;-74
2023/05/07 02:58:23;;;;;;;;;;;10.00;91.80;;;;;;5058983;28;20040;-74
2023/05/07 03:00:49;;;;;;;1999.90;999.90;;;10.00;92.00;;;;;;5062824;28;19919;-74
2023/05/07 03:03:15;;;;;;;1999.90;999.90;;;9.90;92.00;;;;;;5059245;28;20604;-74
2023/05/07 03:05:41;;;;;;;1999.90;999.90;;;9.70;91.90;;;;;;5064980;28;20036;-73
2023/05/07 03:08:07;;;;;;;1999.90;999.90;;;9.60;92.00;;;;;;5071575;28;20104;-74
2023/05/07 03:10:32;;;;;;;1999.90;999.90;;;9.60;92.10;;;;;;5039836;28;20043;-74
2023/05/07 03:12:58;;;;;;;1999.90;999.90;;;9.60;92.10;;;;;;5061368;28;20033;-73
2023/05/07 03:15:24;;;;;;;1999.90;999.90;;;9.50;92.10;;;;;;5072072;28;20032;-73
2023/05/07 03:17:50;;;;;;;1999.90;999.90;;;9.50;91.90;;;;;;5060579;28;20036;-74
2023/05/07 03:20:15;;;;;;;1999.90;999.90;;;9.50;92.10;;;;;;5056819;28;20097;-74
2023/05/07 03:22:41;;;;;;;1999.90;999.90;;;9.50;91.90;;;;;;5074578;28;20036;-74
2023/05/07 03:25:08;;;;;;;1999.90;999.90;;;9.50;92.00;;;;;;5073318;28;20044;-74
2023/05/07 03:27:33;;;;;;;1999.90;999.90;;;9.50;92.00;;;;;;5057620;28;20052;-74
2023/05/07 03:30:00;;;;;;;1999.90;999.90;;;9.50;92.00;;;;;;5066915;28;20101;-74
2023/05/07 03:32:25;;;;;;;1999.90;999.90;;;9.50;92.10;;;;;;5069988;28;20029;-74
2023/05/07 03:34:51;;;;;;;1999.90;999.90;;;9.50;92.10;;;;;;5041830;28;20639;-75
2023/05/07 03:37:16;;;;;;;1999.90;999.90;;;9.40;92.20;;;;;;5073885;28;20444;-74
2023/05/07 03:39:42;;;;;;;1999.90;999.90;;;9.40;92.00;;;;;;5040079;28;20500;-74
2023/05/07 03:42:08;;;;;;;1999.90;999.90;;;9.40;92.20;;;;;;5065733;28;20054;-74
2023/05/07 03:44:33;;;;;;;1999.90;999.90;;;9.40;92.60;;;;;;5059712;28;20036;-73
2023/05/07 03:46:59;;;;;;;1999.90;999.90;;;9.30;92.50;;;;;;5079074;28;20031;-73
2023/05/07 03:49:25;;;;;;;1999.90;999.90;;;9.30;93.00;;;;;;5055841;28;20040;-74
2023/05/07 03:51:50;;;;;;;1999.90;999.90;;;9.20;93.00;;;;;;5076947;28;20430;-73
2023/05/07 03:54:16;;;;;;;1999.90;999.90;;;9.30;93.20;;;;;;5079611;28;20043;-74
2023/05/07 03:56:42;;;;;;;1999.90;999.90;;;9.20;92.80;;;;;;5074515;28;20036;-74
2023/05/07 03:59:07;;;;;;;1999.90;999.90;;;9.20;92.70;;;;;;5076012;28;20036;-74
2023/05/07 04:01:33;;;;;;;1999.90;999.90;;;9.10;92.60;;;;;;5059903;28;20052;-74
2023/05/07 04:03:59;;;;;;;1999.90;999.90;;;9.10;92.70;;;;;;5052917;28;20040;-74
2023/05/07 04:06:25;;;;;;;1999.90;999.90;;;9.10;92.60;;;;;;5082717;28;20040;-73
2023/05/07 04:08:50;;;;;;;1999.90;999.90;;;9.00;92.50;;;;;;5075267;28;20032;-73
2023/05/07 04:11:16;;;;;;;1999.90;999.90;;;9.00;92.50;;;;;;5070776;28;20634;-74
2023/05/07 04:13:42;;;;;;;1999.90;999.90;;;9.00;92.70;;;;;;5061676;28;20032;-74
2023/05/07 04:16:08;;;;;;;1999.90;999.90;;;8.90;92.80;;;;;;5071826;28;20110;-74
2023/05/07 04:18:33;;;;;;;1999.90;999.90;;;9.10;93.10;;;;;;5057194;28;20521;-73
2023/05/07 04:20:59;;;;;;;1999.90;999.90;;;9.20;93.20;;;;;;5073229;28;20051;-74
2023/05/07 04:23:25;;;;;;;1999.90;999.90;;;9.20;93.40;;;;;;5042128;28;20036;-73
2023/05/07 04:25:50;;;;;;;1999.90;999.90;;;9.20;93.20;;;;;;5078148;28;20122;-74
2023/05/07 04:28:16;;;;;;;1999.90;999.90;;;9.10;93.00;;;;;;5069957;28;20504;-74
2023/05/07 04:30:42;;;;;;;1999.90;999.90;;;9.10;93.00;;;;;;5075416;28;20028;-74
2023/05/07 04:33:08;;;;;;;1999.90;999.90;;;9.30;93.10;;;;;;5057382;28;20035;-74
2023/05/07 04:35:34;;;;;;;1999.90;999.90;;;9.50;93.40;;;;;;5058228;28;20040;-74
2023/05/07 04:38:00;;;;;;;1999.90;999.90;;;9.60;93.50;;;;;;5054707;28;20047;-74
2023/05/07 04:40:25;;;;;;;1999.90;999.90;;;9.70;93.70;;;;;;5073208;28;20039;-73
2023/05/07 04:42:52;;;;;;;1999.90;999.90;;;9.90;94.00;;;;;;5073206;28;20037;-74
2023/05/07 04:45:18;;;;;;;1999.90;999.90;;;10.00;94.10;;;;;;5072053;28;20506;-74
2023/05/07 04:47:44;;;;;;;1999.90;999.90;;;10.10;94.10;;;;;;5073730;28;20028;-73
2023/05/07 04:50:10;;;;;;;1999.90;999.90;;;10.30;93.90;;;;;;5071836;28;20048;-74
2023/05/07 04:52:36;;;;;;;1999.90;999.90;;;10.40;93.60;;;;;;5072705;28;20106;-73
2023/05/07 04:55:04;;;;;;;1999.90;999.90;;;10.40;93.30;;;;;;5074194;28;20032;-74
2023/05/07 04:57:30;;;;;;;1999.90;999.90;;;10.60;93.20;;;;;;5074554;28;20040;-74
2023/05/07 04:59:55;;;;;;;1999.90;999.90;;;10.70;93.10;;;;;;5054665;28;20043;-74
2023/05/07 05:02:21;;;;;;;1999.90;999.90;;;10.70;93.00;;;;;;5062405;28;20509;-73
2023/05/07 05:04:46;;;;;;;1999.90;999.90;;;10.80;92.70;;;;;;5072691;28;20469;-73
2023/05/07 05:07:13;;;;;;;1999.90;999.90;;;11.00;92.60;;;;;;5073275;28;20107;-74
2023/05/07 05:09:38;;;;;;;1999.90;999.90;;;11.10;92.50;;;;;;5069918;28;20157;-74
2023/05/07 05:12:07;;;;;;;1999.90;999.90;;;11.40;92.50;;;;;;5056419;28;20461;-74
2023/05/07 05:14:32;;;;;;;1999.90;999.90;;;11.60;91.90;;;;;;5053143;28;20031;-73
2023/05/07 05:16:58;;;;;;;1999.90;999.90;;;11.70;91.50;;;;;;5073612;28;20036;-73
2023/05/07 05:19:24;;;;;;;1999.90;999.90;;;11.80;91.00;;;;;;5056301;28;20040;-73
2023/05/07 05:21:49;;;;;;;1999.90;999.90;;;11.80;90.90;;;;;;5061126;28;20111;-74
2023/05/07 05:24:15;;;;;;;1999.90;999.90;;;11.80;91.10;;;;;;5054573;28;20048;-74
2023/05/07 05:26:41;;;;;;;1999.90;999.90;;;11.70;91.20;;;;;;5075329;28;20139;-74
2023/05/07 05:29:07;;;;;;;1999.90;999.90;;;11.60;91.40;;;;;;5075943;28;20032;-73
2023/05/07 05:31:33;;;;;;;1999.90;999.90;;;11.70;91.40;;;;;;5069572;28;20029;-73
2023/05/07 05:33:59;;;;;;;1999.90;999.90;;;11.80;91.40;;;;;;5069078;28;20039;-73
2023/05/07 05:36:25;;;;;;;1999.90;999.90;;;11.80;91.10;;;;;;5055832;28;20120;-74
2023/05/07 05:38:51;;;;;;;1999.90;999.90;;;11.80;91.00;;;;;;5056584;28;20056;-74
2023/05/07 05:41:16;;;;;;;1999.90;999.90;;;11.90;90.90;;;;;;5061333;28;20486;-73
2023/05/07 05:43:42;;;;;;;1999.90;999.90;;;11.90;90.80;;;;;;5056380;28;20031;-74
2023/05/07 05:46:10;;;;;;;1999.90;999.90;;;11.90;90.70;;;;;;5064734;28;20028;-74
2023/05/07 05:48:36;;;;;;;1999.90;999.90;;;11.80;90.80;;;;;;5070865;28;20405;-74
2023/05/07 05:51:02;;;;;;;1999.90;999.90;;;11.90;90.70;;;;;;5072999;28;20029;-74
2023/05/07 05:53:27;;;;;;;1999.90;999.90;;;12.00;90.70;;;;;;5054214;28;20564;-74
2023/05/07 05:55:53;;;;;;;1999.90;999.90;;;12.10;90.40;;;;;;5069469;28;20033;-74
2023/05/07 05:58:19;;;;;;;1999.90;999.90;;;12.10;90.00;;;;;;5070266;28;20394;-74
2023/05/07 06:00:45;;;;;;;1999.90;999.90;;;12.20;90.10;;;;;;5071595;28;20040;-74
2023/05/07 06:03:11;;;;;;;1999.90;999.90;;;12.30;89.80;;;;;;5054097;28;20032;-74
2023/05/07 06:05:36;;;;;;;1999.90;999.90;;;12.30;89.80;;;;;;5064021;28;20024;-74
2023/05/07 06:08:02;;;;;;;1999.90;999.90;;;12.50;89.90;;;;;;5072049;28;20063;-75
2023/05/07 06:10:29;;;;;;;1999.90;999.90;;;12.70;89.70;;;;;;5057621;28;20115;-75
2023/05/07 06:12:55;;;;;;;1999.90;999.90;;;12.80;89.70;;;;;;5067316;28;20028;-76
2023/05/07 06:15:20;;;;;;;1999.90;999.90;;;13.00;88.90;;;;;;5058491;28;20067;-74
2023/05/07 06:17:46;;;;;;;1999.90;999.90;;;13.10;88.60;;;;;;5066105;28;20041;-73
2023/05/07 06:20:12;;;;;;;1999.90;999.90;;;13.20;86.70;;;;;;5070116;28;20453;-74
2023/05/07 06:22:37;;;;;;;1999.90;999.90;;;13.30;87.50;;;;;;5059811;28;20042;-75
2023/05/07 06:25:03;;;;;;;1999.90;999.90;;;13.40;86.60;;;;;;5071787;28;20057;-74
2023/05/07 06:27:29;;;;;;;1999.90;999.90;;;13.60;87.20;;;;;;5077398;28;20035;-74
2023/05/07 06:29:55;;;;;;;1999.90;999.90;;;13.80;86.50;;;;;;5071780;28;20028;-73
2023/05/07 06:32:20;;;;;;;1999.90;999.90;;;13.90;86.90;;;;;;5072105;28;20135;-73
2023/05/07 06:34:46;;;;;;;1999.90;999.90;;;14.10;86.50;;;;;;5053053;28;20032;-73
2023/05/07 06:37:12;;;;;;;1999.90;999.90;;;14.10;86.00;;;;;;5070938;28;20039;-73
2023/05/07 06:39:37;;;;;;;1999.90;999.90;;;14.40;85.20;;;;;;5057287;28;20397;-73
2023/05/07 06:42:04;;;;;;;1999.90;999.90;;;14.50;84.30;;;;;;5068618;28;20033;-73
2023/05/07 06:44:30;;;;;;;1999.90;999.90;;;14.70;84.20;;;;;;5071966;28;20036;-73
2023/05/07 06:46:56;;;;;;;1999.90;999.90;;;14.90;84.00;;;;;;5052479;28;20037;-76
2023/05/07 06:49:22;;;;;;;1999.90;999.90;;;15.10;82.40;;;;;;5037783;28;20029;-76
2023/05/07 06:51:48;;;;;;;1999.90;999.90;;;15.40;81.70;;;;;;5061525;28;20529;-76
2023/05/07 06:54:13;;;;;;;1999.90;999.90;;;15.60;81.10;;;;;;5041038;28;20078;-76
2023/05/07 06:56:39;;;;;;;1999.90;999.90;;;15.70;81.80;;;;;;5069920;28;20020;-76
2023/05/07 06:59:05;;;;;;;1999.90;999.90;;;15.90;78.60;;;;;;5035008;28;20495;-78
2023/05/07 07:01:31;;;;;;;1999.90;999.90;;;16.10;78.20;;;;;;5052604;28;20036;-77
2023/05/07 07:03:57;;;;;;;1999.90;999.90;;;16.20;80.00;;;;;;5052728;28;20029;-78
2023/05/07 07:06:22;;;;;;;1999.90;999.90;;;16.10;76.90;;;;;;5075076;28;20371;-77
2023/05/07 07:08:48;;;;;;;1999.90;999.90;;;16.30;76.70;;;;;;5071395;28;20513;-78
2023/05/07 07:11:15;;;;;;;1999.90;999.90;;;16.70;76.40;;;;;;5054694;28;20078;-78
2023/05/07 07:13:42;;;;;;;1999.90;999.90;;;16.80;77.50;;;;;;5074318;28;20036;-78
2023/05/07 07:16:08;;;;;;;1999.90;999.90;;;16.90;74.50;;;;;;5072357;28;20158;-78
2023/05/07 07:18:34;;;;;;;1999.90;999.90;;;17.10;73.30;;;;;;5054386;28;20522;-78
2023/05/07 07:20:59;;;;;;;1999.90;999.90;;;17.40;73.10;;;;;;5058173;28;20044;-78
2023/05/07 07:23:25;;;;;;;1999.90;999.90;;;17.80;72.00;;;;;;5074353;28;20044;-81
2023/05/07 07:25:51;;;;;;;899.45;840.58;;;18.10;71.90;;;;;;5045133;28;20049;-78
2023/05/07 07:28:17;;;;;;;872.00;816.58;;;18.00;65.80;;;;;;5073498;28;20107;-78
2023/05/07 07:30:43;;;;;;;739.55;697.15;;;18.20;65.60;;;;;;5070226;28;20020;-77
2023/05/07 07:33:08;;;;;;;729.25;688.83;;;18.00;63.30;;;;;;5054564;28;20496;-78
2023/05/07 07:35:34;;;;;;;1174.25;876.65;;;17.70;65.10;;;;;;5075679;28;20040;-78
2023/05/07 07:38:01;;;;;;;949.47;882.28;;;18.20;69.00;;;;;;5059197;28;20448;-78
2023/05/07 07:40:27;;;;;;;921.75;858.28;;;18.50;67.10;;;;;;5059958;28;20063;-76
2023/05/07 07:42:54;;;;;;;895.53;836.85;;;18.70;68.10;;;;;;5070407;28;20474;-71
2023/05/07 07:45:20;;;;;;;921.90;857.95;;;18.60;66.30;;;;;;5076499;28;20043;-76
2023/05/07 07:47:46;;;;;;;972.33;903.13;;;19.00;66.30;;;;;;5057248;28;20036;-75
2023/05/07 07:50:12;;;;;;;974.90;904.63;;;19.20;66.90;;;;;;5079718;28;20114;-76
2023/05/07 07:52:38;;;;;;;829.50;778.83;;;19.20;66.80;;;;;;5062460;28;20159;-79
2023/05/07 07:55:05;;;;;;;971.50;900.72;;;19.40;63.90;;;;;;5057365;28;20036;-77
2023/05/07 07:57:30;;;;;;;964.40;893.90;;;19.70;65.70;;;;;;5067425;28;20107;-81
2023/05/07 07:59:57;;;;;;;1009.33;934.03;;;19.70;65.40;;;;;;5056214;28;20177;-79
2023/05/07 08:02:22;;;;;;;962.10;891.92;;;19.80;65.10;;;;;;5068776;28;20487;-80
2023/05/07 08:04:48;;;;;;;831.40;780.15;;;19.70;65.60;;;;;;5056156;28;20041;-78
2023/05/07 08:07:14;;;;;;;862.08;807.50;;;19.90;64.40;;;;;;5067756;28;20054;-78
2023/05/07 08:09:42;;;;;;;910.60;848.63;;;19.90;64.90;;;;;;5067610;28;20043;-77
2023/05/07 08:12:07;;;;;;;880.05;822.70;;;20.10;65.10;;;;;;5062679;28;20033;-76
2023/05/07 08:14:34;;;;;;;874.63;817.60;;;20.60;63.90;;;;;;5057184;28;20016;-76
2023/05/07 08:17:00;;;;;;;818.78;767.80;;;20.70;62.60;;;;;;5049326;28;20478;-76
2023/05/07 08:19:26;;;;;;;782.88;736.90;;;20.10;64.20;;;;;;5070979;28;20029;-76
2023/05/07 08:21:51;;;;;;;909.85;845.67;;;20.10;62.70;;;;;;5058093;28;20433;-76
2023/05/07 08:24:18;;;;;;;838.35;785.53;;;20.70;63.60;;;;;;5060700;28;20481;-76
2023/05/07 08:26:44;;;;;;;770.78;724.90;;;21.20;63.10;;;;;;5055453;28;20498;-76
2023/05/07 08:29:10;;;;;;;814.92;766.08;;;21.30;61.60;;;;;;5069100;28;20107;-76
2023/05/07 08:31:36;;;;;;;826.28;775.90;;;21.40;61.20;;;;;;5067467;28;20154;-76
2023/05/07 08:34:01;;;;;;;812.15;763.95;;;21.60;59.50;;;;;;5071448;28;20487;-76
2023/05/07 08:36:28;;;;;;;699.95;663.28;;;21.40;60.60;;;;;;5041569;28;20132;-75
2023/05/07 08:38:54;;;;;;;734.15;694.83;;;21.50;59.50;;;;;;5066294;28;20040;-76
2023/05/07 08:41:20;;;;;;;704.50;668.20;;;21.50;59.80;;;;;;5056816;28;20043;-79
2023/05/07 08:43:51;;;;;;;807.20;759.97;;;21.50;60.00;;;;;;5051314;28;20036;-88
2023/05/07 08:46:21;;;;;;;827.97;778.33;;;21.30;61.30;;;;;;5050951;28;20039;-76
2023/05/07 08:48:51;;;;;;;894.38;835.42;;;21.50;60.60;;;;;;5068468;28;20020;-75
2023/05/07 08:51:19;;;;;;;833.57;782.67;;;20.80;62.00;;;;;;5051989;28;20024;-75
2023/05/07 08:53:45;;;;;;;837.10;786.30;;;20.60;63.40;;;;;;5067980;28;20020;-76
2023/05/07 08:56:12;;;;;;;844.35;792.45;;;20.60;64.20;;;;;;5067940;28;20413;-76
2023/05/07 08:58:38;;;;;;;853.97;801.60;;;20.40;63.60;;;;;;5078810;28;20039;-76
2023/05/07 09:01:07;;;;;;;887.53;831.60;;;20.00;64.30;;;;;;5056399;28;20465;-76
2023/05/07 09:03:33;;;;;;;867.10;811.55;;;19.80;65.60;;;;;;5076906;28;20055;-76
2023/05/07 09:05:59;;;;;;;866.55;812.05;;;19.50;66.20;;;;;;5076202;28;20040;-76
2023/05/07 09:08:26;;;;;;;890.03;831.67;;;19.30;67.30;;;;;;5076360;28;20025;-76
2023/05/07 09:10:53;;;;;;;876.72;820.00;;;19.40;68.40;;;;;;5068326;28;20110;-76
2023/05/07 09:13:19;;;;;;;887.97;831.00;;;19.80;66.60;;;;;;5068201;28;20024;-76
2023/05/07 09:15:45;;;;;;;965.22;894.83;;;20.20;65.80;;;;;;5054124;28;20044;-76
2023/05/07 09:18:11;;;;;;;867.55;813.03;;;20.20;65.40;;;;;;5044839;28;20037;-77
2023/05/07 09:20:39;;;;;;;854.25;800.20;;;20.70;64.50;;;;;;5068900;28;20048;-79
2023/05/07 09:23:08;;;;;;;866.53;811.03;;;20.90;62.40;;;;;;5051338;28;20071;-75
2023/05/07 09:25:35;;;;;;;844.58;792.13;;;21.10;62.80;;;;;;5066906;28;20051;-75
2023/05/07 09:28:03;;;;;;;937.53;873.17;;;21.10;63.20;;;;;;5062139;28;20040;-75
2023/05/07 09:30:37;;;;;;;869.50;813.55;;;21.10;64.70;;;;;;5069443;28;20159;-74
2023/05/07 09:33:04;;;;;;;914.50;852.95;;;21.80;62.00;;;;;;5070760;28;20115;-73
2023/05/07 09:35:30;;;;;;;888.92;831.35;;;22.00;61.30;;;;;;5055223;28;20036;-73
2023/05/07 09:37:58;;;;;;;886.92;829.20;;;22.30;61.50;;;;;;5067222;28;20405;-74
2023/05/07 09:40:29;;;;;;;894.45;835.95;;;22.60;60.00;;;;;;5031123;28;20033;-75
2023/05/07 09:42:55;;;;;;;905.60;847.30;;;22.90;59.90;;;;;;5068720;28;20119;-75
2023/05/07 09:45:31;;;;;;;851.08;798.90;;;23.00;57.60;;;;;;5059555;28;20174;-68
2023/05/07 09:47:58;;;;;;;871.10;816.25;;;22.90;57.40;;;;;;5070631;28;20035;-75
2023/05/07 09:50:30;;;;;;;885.90;830.83;;;22.90;58.30;;;;;;5053572;28;20403;-78
2023/05/07 09:52:56;;;;;;;907.58;849.85;;;23.20;56.70;;;;;;5034570;28;20040;-77
2023/05/07 09:55:22;;;;;;;831.83;782.42;;;23.30;58.00;;;;;;5065497;28;20027;-78
2023/05/07 09:57:52;;;;;;;837.75;788.28;;;23.20;55.90;;;;;;5065719;28;20071;-76
2023/05/07 10:00:22;;;;;;;859.47;808.60;;;23.70;54.60;;;;;;5063669;28;20037;-75
2023/05/07 10:02:51;;;;;;;871.65;818.05;;;23.30;55.20;;;;;;5061015;28;20040;-75
2023/05/07 10:05:18;;;;;;;877.83;823.20;;;23.30;54.90;;;;;;5066730;28;20029;-75
2023/05/07 10:07:45;;;;;;;897.13;840.40;;;23.60;56.90;;;;;;5064855;28;20036;-76
2023/05/07 10:10:11;;;;;;;893.55;837.38;;;23.50;58.20;;;;;;5055968;28;20032;-75
2023/05/07 10:12:38;;;;;;;937.80;874.50;;;23.90;55.30;;;;;;5070080;28;20501;-75
2023/05/07 10:15:09;;;;;;;878.65;823.83;;;23.60;58.20;;;;;;5067441;28;20029;-75
2023/05/07 10:17:38;;;;;;;;;;;23.50;55.00;;;;;;5072831;28;20165;-74
2023/05/07 10:20:05;;;;;;;871.43;817.80;;;23.60;53.00;;;;;;5064635;28;19912;-74
2023/05/07 10:22:42;;;;;;;913.30;854.80;;;23.90;52.70;;;;;;5065175;28;20920;-74
2023/05/07 10:25:20;;;;;;;894.05;837.03;;;24.20;51.50;;;;;;5066370;28;20052;-74
2023/05/07 10:27:49;;;;;;;981.15;915.05;;;24.60;51.50;;;;;;5069349;28;20036;-74
2023/05/07 10:30:18;;;;;;;980.03;912.47;;;24.70;49.70;;;;;;5051208;28;20033;-74
2023/05/07 10:32:51;;;;;;;978.38;910.78;;;24.70;50.50;;;;;;5067436;28;20335;-74
2023/05/07 10:35:21;;;;;;;991.85;922.00;;;24.70;50.20;;;;;;5069945;28;20028;-74
2023/05/07 10:37:47;;;;;;;988.08;919.97;;;24.90;53.50;;;;;;5066953;28;20027;-74
2023/05/07 10:40:14;;;;;;;1004.13;933.25;;;25.00;47.90;;;;;;5065847;28;20065;-74
2023/05/07 10:42:54;;;;;;;963.83;882.13;;;25.00;49.70;;;;;;5065293;28;20024;-74
2023/05/07 10:45:20;;;;;;;1048.07;956.72;;;24.80;47.20;;;;;;5065528;28;20056;-74
2023/05/07 10:48:15;;;;;;;1002.38;926.85;;;24.90;47.60;;;;;;5074951;28;20111;-74
2023/05/07 10:50:46;;;;;;;1035.45;950.92;;;25.40;47.50;;;;;;5049395;28;20033;-73
2023/05/07 10:53:17;;;;;;;1093.60;997.30;;;25.60;47.10;;;;;;5065396;28;20036;-74
2023/05/07 10:56:18;;;;;;;1011.85;929.45;;;25.30;46.10;;;;;;5065442;28;20103;-74
2023/05/07 10:58:44;;;;;;;950.33;872.63;;;25.00;48.70;;;;;;5051982;28;20100;-75
2023/05/07 11:01:12;;;;;;;983.08;897.45;;;24.60;47.80;;;;;;5058424;28;20095;-75
2023/05/07 11:04:17;;;;;;;907.58;816.22;;;25.30;49.80;;;;;;5046855;28;20036;-70
2023/05/07 11:07:08;;;;;;;362.73;304.05;;;26.50;45.90;;;;;;5072105;28;20028;-70
2023/05/07 11:09:52;;;;;;;1999.90;999.90;;;26.30;45.40;;;;;;5071036;28;20093;-76
2023/05/07 11:12:38;;;;;;;1999.90;999.90;;;25.60;45.30;;;;;;5057659;28;20052;-74
2023/05/07 11:15:07;;;;;;;1999.90;999.90;;;26.20;47.10;;;;;;5050318;28;20444;-74
2023/05/07 11:17:34;;;;;;;1999.90;999.90;;;26.40;41.20;;;;;;5071826;28;20426;-74
2023/05/07 11:20:02;;;;;;;1999.90;999.90;;;26.20;42.10;;;;;;5049454;28;20797;-74
2023/05/07 11:22:35;;;;;;;1999.90;999.90;;;26.30;44.30;;;;;;5069793;28;20115;-73
2023/05/07 11:25:02;;;;;;;1999.90;999.90;;;27.30;40.30;;;;;;5072858;28;20052;-74
2023/05/07 11:27:28;;;;;;;1999.90;999.90;;;27.70;38.80;;;;;;5067739;28;20394;-74
2023/05/07 11:29:54;;;;;;;1999.90;999.90;;;27.00;40.50;;;;;;5050250;28;20494;-74
2023/05/07 11:32:28;;;;;;;1999.90;999.90;;;26.80;41.30;;;;;;5072080;28;20040;-74
2023/05/07 11:34:55;;;;;;;1999.90;999.90;;;26.40;41.10;;;;;;5067406;28;20415;-73
2023/05/07 11:37:22;;;;;;;1999.90;999.90;;;26.60;41.70;;;;;;5055481;28;20021;-73
2023/05/07 11:39:49;;;;;;;1999.90;999.90;;;26.30;42.40;;;;;;5069841;28;20492;-74
2023/05/07 11:42:32;;;;;;;1999.90;999.90;;;26.20;42.80;;;;;;5078468;28;20028;-74
2023/05/07 11:44:58;;;;;;;1999.90;999.90;;;26.20;43.50;;;;;;5054712;28;20024;-75
2023/05/07 11:47:24;;;;;;;1999.90;999.90;;;26.30;42.40;;;;;;5073069;28;20059;-74
2023/05/07 11:49:51;;;;;;;1999.90;999.90;;;26.80;41.40;;;;;;5070221;28;20170;-74
2023/05/07 11:52:18;;;;;;;1999.90;999.90;;;27.10;42.00;;;;;;5069416;28;20029;-74
2023/05/07 11:54:57;;;;;;;1999.90;999.90;;;27.60;39.20;;;;;;5067194;28;20109;-74
2023/05/07 11:57:27;;;;;;;1999.90;999.90;;;27.30;38.60;;;;;;5051534;28;20081;-74
2023/05/07 11:59:56;;;;;;;;;;;27.30;38.50;;;;;;5068397;28;20040;-74
2023/05/07 12:02:22;;;;;;;1999.90;999.90;;;27.50;38.30;;;;;;5072996;28;19916;-74